Time;durP1;ratioP1;P1;durP2;ratioP2;P2;SDS_P1;SDS_P2;PMS_P1;PMS_P2;Temp;Humidity;BMP_temperature;BMP_pressure;BME280_temperature;BME280_humidity;BME280_pressure;Samples;Min_cycle;Max_cycle;Signal;HPM_P1;HPM_P2
2024/04/24 00:01:23;;;;;;;;;23.25;21.00;;;;;;;;6490767;39;8974;-69
2024/04/24 00:07:25;;;;;;;;;14.50;12.75;;;;;;;;6490633;39;9573;-69
2024/04/24 00:13:28;;;;;;;;;18.50;15.50;;;;;;;;6491075;39;9138;-69
2024/04/24 00:19:33;;;;;;;;;22.00;20.25;;;;;;;;6490997;39;9516;-69
2024/04/24 00:25:35;;;;;;;;;25.00;19.75;;;;;;;;6490590;39;8986;-68
2024/04/24 00:31:40;;;;;;;;;20.50;19.00;;;;;;;;6492767;39;9542;-69
2024/04/24 00:37:43;;;;;;;;;20.00;18.50;;;;;;;;6492152;46;9074;-69
2024/04/24 00:43:47;;;;;;;;;23.50;21.75;;;;;;;;6492956;39;9041;-69
2024/04/24 00:49:50;;;;;;;;;23.25;22.00;;;;;;;;6492572;39;9542;-69
2024/04/24 00:55:55;;;;;;;;;19.25;18.50;;;;;;;;6492048;39;8993;-69
2024/04/24 01:02:00;;;;;;;;;21.50;20.00;;;;;;;;6492579;39;8959;-68
2024/04/24 01:08:04;;;;;;;;;20.00;17.75;;;;;;;;6492263;31;8974;-70
2024/04/24 01:14:05;;;;;;;;;19.50;19.50;;;;;;;;6311704;39;10000929;-68
2024/04/24 01:20:14;;;;;;;;;23.75;21.75;;;;;;;;6492329;31;8941;-69
2024/04/24 01:26:26;;;;;;;;;26.50;24.00;;;;;;;;6492303;39;9677;-69
2024/04/24 01:32:32;;;;;;;;;27.50;23.00;;;;;;;;6492702;39;8941;-69
2024/04/24 01:38:33;;;;;;;;;24.50;22.50;;;;;;;;6492887;39;9555;-69
2024/04/24 01:44:41;;;;;;;;;23.75;22.50;;;;;;;;6491717;39;9055;-68
2024/04/24 01:50:44;;;;;;;;;19.50;18.25;;;;;;;;6491498;39;8909;-69
2024/04/24 01:56:46;;;;;;;;;24.00;21.75;;;;;;;;6492460;39;9694;-68
2024/04/24 02:02:50;;;;;;;;;25.50;22.50;;;;;;;;6527754;36;8978;-71
2024/04/24 02:08:51;;;;;;;;;27.50;21.75;;;;;;;;6491633;46;9088;-69
2024/04/24 02:14:52;;;;;;;;;30.75;26.00;;;;;;;;6491505;46;8915;-69
2024/04/24 02:20:56;;;;;;;;;28.00;24.25;;;;;;;;6491139;31;8942;-69
2024/04/24 02:27:00;;;;;;;;;25.50;24.25;;;;;;;;6491634;46;8961;-69
2024/04/24 02:33:02;;;;;;;;;22.75;22.75;;;;;;;;6491691;39;9032;-69
2024/04/24 02:39:05;;;;;;;;;28.25;25.50;;;;;;;;6491123;39;8964;-69
2024/04/24 02:45:08;;;;;;;;;29.50;22.75;;;;;;;;6491807;39;9172;-70
2024/04/24 02:51:13;;;;;;;;;29.50;26.25;;;;;;;;6490807;39;8910;-69
2024/04/24 02:57:17;;;;;;;;;26.75;24.00;;;;;;;;6491856;46;8921;-68
2024/04/24 03:03:20;;;;;;;;;30.00;28.75;;;;;;;;6490643;46;9085;-67
2024/04/24 03:09:23;;;;;;;;;28.75;26.75;;;;;;;;6490627;46;8922;-68
2024/04/24 03:15:25;;;;;;;;;34.50;29.75;;;;;;;;6489828;46;9013;-69
2024/04/24 03:21:28;;;;;;;;;29.25;27.50;;;;;;;;6490150;46;9007;-70
2024/04/24 03:27:33;;;;;;;;;26.75;25.25;;;;;;;;6490430;31;8910;-68
2024/04/24 03:33:39;;;;;;;;;26.00;25.50;;;;;;;;6490632;31;8914;-69
2024/04/24 03:39:43;;;;;;;;;25.50;24.50;;;;;;;;6490080;31;9021;-69
2024/04/24 03:45:47;;;;;;;;;27.50;26.50;;;;;;;;6489395;39;8941;-70
2024/04/24 03:51:48;;;;;;;;;33.00;30.50;;;;;;;;6489586;39;9464;-70
2024/04/24 03:57:50;;;;;;;;;29.50;29.25;;;;;;;;6490375;39;8965;-70
2024/04/24 04:03:57;;;;;;;;;34.50;32.25;;;;;;;;6469812;46;8988;-65
2024/04/24 04:09:59;;;;;;;;;32.25;27.25;;;;;;;;6492286;39;8884;-65
2024/04/24 04:16:00;;;;;;;;;33.00;30.25;;;;;;;;6494279;39;9461;-65
2024/04/24 04:22:01;;;;;;;;;32.75;30.75;;;;;;;;6493089;46;8877;-65
2024/04/24 04:28:03;;;;;;;;;35.25;31.50;;;;;;;;6493716;39;8908;-63
2024/04/24 04:34:05;;;;;;;;;35.25;31.00;;;;;;;;6492682;39;8957;-64
2024/04/24 04:40:07;;;;;;;;;39.50;30.75;;;;;;;;6524662;36;5002317;-64
2024/04/24 04:46:08;;;;;;;;;35.50;32.25;;;;;;;;6493658;39;8895;-64
2024/04/24 04:52:14;;;;;;;;;37.75;33.75;;;;;;;;6493158;39;8959;-64
2024/04/24 04:58:15;;;;;;;;;25.75;25.50;;;;;;;;6493365;39;9619;-64
2024/04/24 05:04:20;;;;;;;;;36.25;29.50;;;;;;;;6494103;31;9632;-64
2024/04/24 05:10:21;;;;;;;;;30.75;30.75;;;;;;;;6492917;31;8922;-64
2024/04/24 05:16:22;;;;;;;;;37.50;35.50;;;;;;;;6492444;31;8959;-64
2024/04/24 05:22:33;;;;;;;;;35.75;31.50;;;;;;;;6492256;31;9060;-61
2024/04/24 05:34:53;;;;;;;;;41.25;37.00;;;;;;;;6492298;39;8957;-61
2024/04/24 05:40:55;;;;;;;;;35.75;31.50;;;;;;;;6493040;31;9430;-63
2024/04/24 05:46:57;;;;;;;;;37.25;31.00;;;;;;;;6492680;46;8963;-61
2024/04/24 05:52:58;;;;;;;;;38.00;33.67;;;;;;;;6491583;31;8883;-61
2024/04/24 05:58:59;;;;;;;;;36.50;34.25;;;;;;;;6491707;31;8863;-61
2024/04/24 06:05:00;;;;;;;;;34.67;32.67;;;;;;;;6491398;39;9095;-61
2024/04/24 06:11:03;;;;;;;;;33.00;30.67;;;;;;;;6490710;39;8889;-62
2024/04/24 06:17:04;;;;;;;;;36.67;29.67;;;;;;;;6490095;46;9108;-60
2024/04/24 06:23:06;;;;;;;;;33.67;31.00;;;;;;;;6491369;46;8979;-61
2024/04/24 06:29:08;;;;;;;;;44.67;36.33;;;;;;;;6491731;31;8957;-61
2024/04/24 06:35:09;;;;;;;;;35.00;30.67;;;;;;;;6490092;46;8896;-60
2024/04/24 06:41:14;;;;;;;;;22.33;20.33;;;;;;;;6488227;46;9005;-61
2024/04/24 06:47:15;;;;;;;;;29.00;26.50;;;;;;;;6492071;39;9610;-64
2024/04/24 06:53:18;;;;;;;;;25.67;22.00;;;;;;;;6486270;46;8936;-64
2024/04/24 06:59:23;;;;;;;;;26.00;21.67;;;;;;;;6490747;39;8967;-64
2024/04/24 07:05:25;;;;;;;;;28.00;26.00;;;;;;;;6491543;39;8963;-64
2024/04/24 07:11:26;;;;;;;;;23.67;23.67;;;;;;;;6491029;31;9588;-63
2024/04/24 07:17:29;;;;;;;;;29.00;24.67;;;;;;;;6490571;46;8888;-62
2024/04/24 07:23:33;;;;;;;;;28.00;24.67;;;;;;;;6489450;39;9027;-63
2024/04/24 07:29:34;;;;;;;;;27.33;26.33;;;;;;;;6490908;39;8910;-61
2024/04/24 07:35:35;;;;;;;;;24.67;22.00;;;;;;;;6488814;46;8928;-62
2024/04/24 07:41:36;;;;;;;;;28.67;28.00;;;;;;;;6489332;39;8954;-64
2024/04/24 07:47:38;;;;;;;;;26.67;25.67;;;;;;;;6492164;39;8938;-62
2024/04/24 07:53:39;;;;;;;;;24.00;22.33;;;;;;;;6487449;39;8913;-64
2024/04/24 07:59:41;;;;;;;;;22.33;22.33;;;;;;;;6489880;39;8998;-66
2024/04/24 08:05:42;;;;;;;;;22.33;18.67;;;;;;;;6490816;31;9789;-63
2024/04/24 08:11:44;;;;;;;;;20.67;19.00;;;;;;;;6487525;46;9036;-63
2024/04/24 08:17:47;;;;;;;;;22.00;20.67;;;;;;;;6489998;46;9063;-63
2024/04/24 08:23:48;;;;;;;;;20.00;20.00;;;;;;;;6488029;46;8976;-64
2024/04/24 08:29:50;;;;;;;;;13.33;12.00;;;;;;;;6489390;31;9036;-61
2024/04/24 08:35:53;;;;;;;;;20.00;19.67;;;;;;;;6491012;46;8920;-62
2024/04/24 08:41:57;;;;;;;;;18.67;18.67;;;;;;;;6490021;39;8936;-62
2024/04/24 08:47:59;;;;;;;;;16.00;15.33;;;;;;;;6488265;39;8958;-65
2024/04/24 08:54:03;;;;;;;;;26.33;22.67;;;;;;;;6484045;39;8935;-63
2024/04/24 09:00:08;;;;;;;;;21.67;19.00;;;;;;;;6489425;31;8920;-62
2024/04/24 09:06:10;;;;;;;;;15.67;12.67;;;;;;;;6490038;31;8965;-62
2024/04/24 09:12:15;;;;;;;;;16.67;16.67;;;;;;;;6489584;39;8925;-67
2024/04/24 09:18:17;;;;;;;;;18.33;17.33;;;;;;;;6488979;31;8916;-61
2024/04/24 09:24:19;;;;;;;;;21.00;21.00;;;;;;;;6488667;31;8936;-61
2024/04/24 09:30:20;;;;;;;;;16.00;13.00;;;;;;;;6488332;46;9025;-63
2024/04/24 09:36:22;;;;;;;;;14.33;13.00;;;;;;;;6489855;39;9067;-61
2024/04/24 09:42:24;;;;;;;;;17.00;17.00;;;;;;;;6488789;39;8987;-63
2024/04/24 09:48:26;;;;;;;;;11.00;11.00;;;;;;;;6488164;31;9104;-61
2024/04/24 09:54:27;;;;;;;;;15.00;14.00;;;;;;;;6489005;31;8940;-62
2024/04/24 10:00:32;;;;;;;;;14.00;13.50;;;;;;;;6485661;39;8990;-60
2024/04/24 10:06:40;;;;;;;;;15.33;15.00;;;;;;;;6487468;46;8939;-61
2024/04/24 10:12:47;;;;;;;;;16.33;16.00;;;;;;;;6483065;31;8970;-61
2024/04/24 10:18:49;;;;;;;;;17.00;16.75;;;;;;;;4865854;46;20001455;-60
2024/04/24 10:24:51;;;;;;;;;17.33;16.00;;;;;;;;6490267;31;8963;-61
2024/04/24 10:30:58;;;;;;;;;18.00;15.67;;;;;;;;6489345;39;8956;-61
2024/04/24 10:37:01;;;;;;;;;19.00;18.00;;;;;;;;6489226;39;8919;-61
2024/04/24 10:43:07;;;;;;;;;16.00;16.00;;;;;;;;6490229;39;9014;-62
2024/04/24 10:49:11;;;;;;;;;19.67;18.33;;;;;;;;6488598;39;8961;-61
2024/04/24 10:55:21;;;;;;;;;17.33;15.00;;;;;;;;6487392;39;8942;-60
2024/04/24 11:01:31;;;;;;;;;18.00;14.33;;;;;;;;6487717;39;9016;-62
2024/04/24 11:07:32;;;;;;;;;18.00;18.00;;;;;;;;6489929;39;8990;-62
2024/04/24 11:13:36;;;;;;;;;15.33;14.33;;;;;;;;6484723;39;8908;-61
2024/04/24 11:19:37;;;;;;;;;24.67;21.33;;;;;;;;6488972;39;9527;-60
2024/04/24 11:25:50;;;;;;;;;14.00;13.00;;;;;;;;6489290;47;9012;-62
2024/04/24 11:31:52;;;;;;;;;16.67;13.67;;;;;;;;6488536;39;8957;-61
2024/04/24 11:37:54;;;;;;;;;18.33;14.00;;;;;;;;6486257;31;9029;-62
2024/04/24 11:43:55;;;;;;;;;12.00;12.00;;;;;;;;6487783;39;8962;-64
2024/04/24 11:49:59;;;;;;;;;11.33;11.33;;;;;;;;6486061;39;8916;-63
2024/04/24 11:56:03;;;;;;;;;14.67;13.67;;;;;;;;6485717;47;8964;-62
2024/04/24 12:02:04;;;;;;;;;26.33;24.67;;;;;;;;6486216;47;8962;-63
2024/04/24 12:08:07;;;;;;;;;17.67;13.67;;;;;;;;6489454;31;8904;-63
2024/04/24 12:14:13;;;;;;;;;19.00;18.00;;;;;;;;6487796;39;8888;-61
2024/04/24 12:20:18;;;;;;;;;15.33;13.67;;;;;;;;6488199;39;8923;-62
2024/04/24 12:26:20;;;;;;;;;19.67;16.33;;;;;;;;6486173;31;8973;-62
2024/04/24 12:32:24;;;;;;;;;13.50;12.50;;;;;;;;6489773;39;8997;-63
2024/04/24 12:38:26;;;;;;;;;11.00;10.67;;;;;;;;6489902;46;8994;-62
2024/04/24 12:44:31;;;;;;;;;11.33;10.67;;;;;;;;6489819;31;8924;-61
2024/04/24 12:50:35;;;;;;;;;17.67;15.33;;;;;;;;6489420;39;8916;-61
2024/04/24 12:56:36;;;;;;;;;15.00;12.67;;;;;;;;6489903;46;9018;-63
2024/04/24 13:02:38;;;;;;;;;15.33;15.00;;;;;;;;6489444;39;9008;-63
2024/04/24 13:08:39;;;;;;;;;13.25;13.25;;;;;;;;6489891;39;9013;-62
2024/04/24 13:14:42;;;;;;;;;11.33;11.33;;;;;;;;6491031;39;9599;-62
2024/04/24 13:20:43;;;;;;;;;18.33;15.67;;;;;;;;6483263;39;8973;-61
2024/04/24 13:26:44;;;;;;;;;10.67;10.67;;;;;;;;6490326;40;8923;-61
2024/04/24 13:32:45;;;;;;;;;9.25;8.75;;;;;;;;6490344;39;9019;-59
2024/04/24 13:38:47;;;;;;;;;9.25;9.25;;;;;;;;6488623;39;9948;-61
2024/04/24 13:44:48;;;;;;;;;16.33;14.00;;;;;;;;6489454;46;9038;-62
2024/04/24 13:50:50;;;;;;;;;16.25;13.75;;;;;;;;6489432;31;9102;-60
2024/04/24 13:56:51;;;;;;;;;13.25;13.25;;;;;;;;6489937;46;8916;-62
2024/04/24 14:02:52;;;;;;;;;12.25;12.25;;;;;;;;6489643;46;8987;-61
2024/04/24 14:08:55;;;;;;;;;14.00;12.50;;;;;;;;6490414;31;8915;-62
2024/04/24 14:14:56;;;;;;;;;14.25;14.25;;;;;;;;6490247;39;8934;-61
2024/04/24 14:20:57;;;;;;;;;20.67;20.00;;;;;;;;6490003;39;9598;-61
2024/04/24 14:26:58;;;;;;;;;11.25;11.25;;;;;;;;6489346;39;8906;-60
2024/04/24 14:32:59;;;;;;;;;11.50;11.00;;;;;;;;6490010;46;8986;-62
2024/04/24 14:39:01;;;;;;;;;12.00;10.75;;;;;;;;6489550;39;8906;-61
2024/04/24 14:45:03;;;;;;;;;10.00;10.00;;;;;;;;6490181;46;8939;-62
2024/04/24 14:51:05;;;;;;;;;12.33;11.00;;;;;;;;6489640;46;8970;-60
2024/04/24 14:57:08;;;;;;;;;7.00;7.00;;;;;;;;6490695;39;10076;-63
2024/04/24 15:03:10;;;;;;;;;9.50;8.50;;;;;;;;6489866;46;9141;-63
2024/04/24 15:09:11;;;;;;;;;9.75;9.00;;;;;;;;6490569;39;9002;-61
2024/04/24 15:15:14;;;;;;;;;10.00;9.00;;;;;;;;6489728;39;8966;-62
2024/04/24 15:21:15;;;;;;;;;10.75;10.75;;;;;;;;6489293;46;8963;-61
2024/04/24 15:27:18;;;;;;;;;9.00;9.00;;;;;;;;6489587;47;8881;-62
2024/04/24 15:33:19;;;;;;;;;7.00;7.00;;;;;;;;6489583;39;9038;-60
2024/04/24 15:39:20;;;;;;;;;10.25;8.75;;;;;;;;6489980;47;9029;-62
2024/04/24 15:45:22;;;;;;;;;10.00;9.75;;;;;;;;6489939;47;9054;-63
2024/04/24 15:51:23;;;;;;;;;8.25;8.00;;;;;;;;6489543;31;8888;-62
2024/04/24 15:57:26;;;;;;;;;8.50;7.75;;;;;;;;6490516;39;8959;-63
2024/04/24 16:03:28;;;;;;;;;8.00;8.00;;;;;;;;6492463;39;9017;-61
2024/04/24 16:09:31;;;;;;;;;8.00;7.33;;;;;;;;6491282;39;8916;-61
2024/04/24 16:15:33;;;;;;;;;10.00;7.00;;;;;;;;6492502;31;8928;-61
2024/04/24 16:21:34;;;;;;;;;8.67;8.33;;;;;;;;6490942;39;8962;-62
2024/04/24 16:27:38;;;;;;;;;8.67;8.67;;;;;;;;6491614;39;9034;-63
2024/04/24 16:33:39;;;;;;;;;7.33;7.33;;;;;;;;6490819;31;9630;-62
2024/04/24 16:39:40;;;;;;;;;10.00;10.00;;;;;;;;6491534;39;8991;-62
2024/04/24 16:45:42;;;;;;;;;10.33;9.67;;;;;;;;6491249;39;8939;-64
2024/04/24 16:51:46;;;;;;;;;11.33;11.00;;;;;;;;6487453;46;8950;-64
2024/04/24 16:57:49;;;;;;;;;11.00;11.00;;;;;;;;6489878;39;9438;-63
2024/04/24 17:03:51;;;;;;;;;12.33;12.33;;;;;;;;6490219;31;9125;-65
2024/04/24 17:09:52;;;;;;;;;9.00;9.00;;;;;;;;6490590;46;8969;-66
2024/04/24 17:15:53;;;;;;;;;13.00;11.33;;;;;;;;6490185;39;8891;-64
2024/04/24 17:21:55;;;;;;;;;17.33;15.00;;;;;;;;6491426;39;9037;-63
2024/04/24 17:27:57;;;;;;;;;12.67;12.33;;;;;;;;6490900;46;9017;-64
2024/04/24 17:34:02;;;;;;;;;14.67;14.67;;;;;;;;6491545;39;8983;-65
2024/04/24 17:40:04;;;;;;;;;21.33;18.67;;;;;;;;6490464;39;8884;-65
2024/04/24 17:46:07;;;;;;;;;19.67;17.00;;;;;;;;6490948;39;8943;-64
2024/04/24 17:52:09;;;;;;;;;22.33;22.00;;;;;;;;6490658;39;9238;-65
2024/04/24 17:58:13;;;;;;;;;19.00;16.33;;;;;;;;6489415;39;8983;-64
2024/04/24 18:04:15;;;;;;;;;7.33;7.33;;;;;;;;6490254;46;9013;-63
2024/04/24 18:10:22;;;;;;;;;12.67;12.67;;;;;;;;6490548;39;9580;-63
2024/04/24 18:16:24;;;;;;;;;14.67;14.33;;;;;;;;6491561;39;8978;-65
2024/04/24 18:22:26;;;;;;;;;15.00;15.00;;;;;;;;6490326;46;8974;-63
2024/04/24 18:28:27;;;;;;;;;15.00;15.00;;;;;;;;6492141;31;8876;-64
2024/04/24 18:34:28;;;;;;;;;15.33;15.33;;;;;;;;6491270;31;8904;-64
2024/04/24 18:40:29;;;;;;;;;23.00;18.00;;;;;;;;6490100;39;9030;-64
2024/04/24 18:46:30;;;;;;;;;27.00;22.00;;;;;;;;6490785;39;8955;-64
2024/04/24 18:52:32;;;;;;;;;20.33;18.67;;;;;;;;6489709;39;8887;-64
2024/04/24 18:58:35;;;;;;;;;29.67;29.33;;;;;;;;6489999;31;8947;-64
2024/04/24 19:04:36;;;;;;;;;23.33;23.33;;;;;;;;6490262;39;8980;-64
2024/04/24 19:10:38;;;;;;;;;27.67;25.67;;;;;;;;6535966;36;8931;-64
2024/04/24 19:16:42;;;;;;;;;28.00;27.33;;;;;;;;6490579;39;9034;-64
2024/04/24 19:22:43;;;;;;;;;25.67;24.33;;;;;;;;6490878;39;8951;-65
2024/04/24 19:28:46;;;;;;;;;23.33;21.00;;;;;;;;6489635;46;8911;-64
2024/04/24 19:34:49;;;;;;;;;25.00;24.33;;;;;;;;6489639;39;8896;-64
2024/04/24 19:40:51;;;;;;;;;23.33;22.33;;;;;;;;6489470;47;8928;-65
2024/04/24 19:46:56;;;;;;;;;25.67;24.67;;;;;;;;6488571;39;9060;-63
2024/04/24 19:52:57;;;;;;;;;30.00;29.00;;;;;;;;6489779;39;9775;-65
2024/04/24 19:58:58;;;;;;;;;26.00;25.67;;;;;;;;6489728;39;8956;-64
2024/04/24 20:05:00;;;;;;;;;21.33;19.67;;;;;;;;6490651;31;9065;-64
2024/04/24 20:11:06;;;;;;;;;22.33;21.67;;;;;;;;6489981;39;8932;-65
2024/04/24 20:17:08;;;;;;;;;29.67;27.00;;;;;;;;6489861;31;9022;-65
2024/04/24 20:23:09;;;;;;;;;26.33;23.33;;;;;;;;6489810;31;8925;-64
2024/04/24 20:29:10;;;;;;;;;28.33;23.33;;;;;;;;6488824;47;8926;-65
2024/04/24 20:35:12;;;;;;;;;20.67;17.67;;;;;;;;6489064;31;9099;-64
2024/04/24 20:41:14;;;;;;;;;28.67;28.00;;;;;;;;6488954;39;9118;-63
2024/04/24 20:47:17;;;;;;;;;27.00;24.67;;;;;;;;6489835;46;8936;-65
2024/04/24 20:53:23;;;;;;;;;26.33;24.33;;;;;;;;6490742;39;8922;-64
2024/04/24 20:59:24;;;;;;;;;23.00;22.33;;;;;;;;6491044;39;9715;-64
2024/04/24 21:05:27;;;;;;;;;30.00;28.67;;;;;;;;6491613;31;8963;-63
2024/04/24 21:11:28;;;;;;;;;29.00;28.00;;;;;;;;6491333;39;8905;-64
2024/04/24 21:17:31;;;;;;;;;32.67;30.00;;;;;;;;6491372;39;8899;-64
2024/04/24 21:23:35;;;;;;;;;28.33;27.33;;;;;;;;6491169;39;9016;-64
2024/04/24 21:29:36;;;;;;;;;27.00;24.33;;;;;;;;6491095;39;9598;-63
2024/04/24 21:35:37;;;;;;;;;25.33;24.00;;;;;;;;6491751;31;8917;-63
2024/04/24 21:41:39;;;;;;;;;24.00;22.00;;;;;;;;6490933;39;9047;-65
2024/04/24 21:47:42;;;;;;;;;24.67;20.00;;;;;;;;6491489;39;8897;-65
2024/04/24 21:53:44;;;;;;;;;21.00;20.00;;;;;;;;6490598;31;8911;-63
2024/04/24 21:59:46;;;;;;;;;21.67;20.33;;;;;;;;6490680;39;9566;-64
2024/04/24 22:05:48;;;;;;;;;23.33;20.67;;;;;;;;6491614;39;8954;-64
2024/04/24 22:11:54;;;;;;;;;23.67;21.33;;;;;;;;6490111;46;8903;-64
2024/04/24 22:17:58;;;;;;;;;19.67;18.67;;;;;;;;6489985;39;9533;-63
2024/04/24 22:24:00;;;;;;;;;19.33;19.33;;;;;;;;6490499;31;8965;-63
2024/04/24 22:30:01;;;;;;;;;23.00;22.67;;;;;;;;6490078;39;8892;-64
2024/04/24 22:36:04;;;;;;;;;19.67;17.67;;;;;;;;6488509;46;8907;-64
2024/04/24 22:42:06;;;;;;;;;23.00;21.67;;;;;;;;6489429;46;8965;-64
2024/04/24 22:48:07;;;;;;;;;25.00;23.00;;;;;;;;6489889;31;8938;-64
2024/04/24 22:54:08;;;;;;;;;24.25;23.50;;;;;;;;6488672;39;9055;-64
2024/04/24 23:00:19;;;;;;;;;28.25;26.75;;;;;;;;6488822;39;9000;-64
2024/04/24 23:06:21;;;;;;;;;30.25;29.00;;;;;;;;6481387;46;456862;-64
2024/04/24 23:12:23;;;;;;;;;28.50;26.00;;;;;;;;6490354;39;9015;-64
2024/04/24 23:18:27;;;;;;;;;23.50;22.25;;;;;;;;6490631;39;8900;-63
2024/04/24 23:24:29;;;;;;;;;23.50;23.50;;;;;;;;6490173;46;9051;-64
2024/04/24 23:30:30;;;;;;;;;24.75;24.75;;;;;;;;6489736;47;9023;-64
2024/04/24 23:36:33;;;;;;;;;26.33;24.67;;;;;;;;6489990;39;8904;-63
2024/04/24 23:42:34;;;;;;;;;25.00;21.33;;;;;;;;6489475;47;8920;-63
2024/04/24 23:48:36;;;;;;;;;21.00;19.67;;;;;;;;6489692;31;8958;-63
2024/04/24 23:54:37;;;;;;;;;21.00;21.00;;;;;;;;6489795;39;9598;-64
